Time;durP1;ratioP1;P1;durP2;ratioP2;P2;SDS_P1;SDS_P2;PMS_P1;PMS_P2;Temp;Humidity;BMP_temperature;BMP_pressure;BME280_temperature;BME280_humidity;BME280_pressure;Samples;Min_cycle;Max_cycle;Signal;HPM_P1;HPM_P2
2021/06/24 00:00:45;;;;;;;4.70;4.20;;;22.30;66.10;;;;;;4921161;29;20162;-81
2021/06/24 00:03:11;;;;;;;4.90;4.30;;;22.30;66.10;;;;;;4921080;29;20245;-81
2021/06/24 00:05:38;;;;;;;5.45;4.45;;;22.40;66.20;;;;;;4919652;29;20508;-81
2021/06/24 00:08:04;;;;;;;4.57;4.03;;;22.30;66.10;;;;;;4919501;29;20220;-81
2021/06/24 00:10:30;;;;;;;4.82;4.07;;;22.40;66.20;;;;;;4920577;29;20163;-81
2021/06/24 00:12:57;;;;;;;5.00;4.50;;;22.40;66.10;;;;;;4919813;29;20155;-81
2021/06/24 00:15:23;;;;;;;4.65;4.15;;;22.30;66.00;;;;;;4919313;29;20202;-81
2021/06/24 00:17:49;;;;;;;4.90;4.40;;;22.40;66.10;;;;;;4919519;29;20642;-82
2021/06/24 00:20:15;;;;;;;4.85;4.38;;;22.30;66.00;;;;;;4919400;29;20182;-81
2021/06/24 00:22:41;;;;;;;4.90;4.40;;;22.40;66.10;;;;;;4919505;29;20278;-81
2021/06/24 00:25:07;;;;;;;4.90;4.30;;;22.40;66.10;;;;;;4920407;29;20249;-81
2021/06/24 00:27:33;;;;;;;4.68;4.13;;;22.30;66.10;;;;;;4903090;29;20309;-82
2021/06/24 00:29:58;;;;;;;5.45;4.63;;;22.30;66.10;;;;;;4919187;29;20373;-81
2021/06/24 00:32:24;;;;;;;5.32;4.80;;;22.40;66.10;;;;;;4919172;29;20631;-81
2021/06/24 00:34:50;;;;;;;5.00;4.50;;;22.30;66.10;;;;;;4919027;29;20669;-81
2021/06/24 00:37:16;;;;;;;5.03;4.53;;;22.30;66.10;;;;;;4919061;29;20167;-82
2021/06/24 00:39:41;;;;;;;4.70;4.20;;;22.30;66.10;;;;;;4919009;29;20237;-81
2021/06/24 00:42:07;;;;;;;5.03;4.47;;;22.30;66.10;;;;;;4919205;29;20179;-81
2021/06/24 00:44:33;;;;;;;5.00;4.38;;;22.30;66.10;;;;;;4919016;29;20689;-81
2021/06/24 00:46:59;;;;;;;4.85;4.35;;;22.30;66.10;;;;;;4918879;29;20250;-81
2021/06/24 00:49:24;;;;;;;4.97;4.43;;;22.30;66.10;;;;;;4918812;29;20187;-81
2021/06/24 00:51:54;;;;;;;4.60;4.10;;;22.30;66.00;;;;;;4918848;29;20247;-80
2021/06/24 00:54:20;;;;;;;5.32;4.82;;;22.30;66.10;;;;;;4886843;29;20183;-81
2021/06/24 00:56:49;;;;;;;5.20;4.70;;;22.30;66.00;;;;;;4920268;29;20159;-81
2021/06/24 00:59:16;;;;;;;5.38;4.43;;;22.30;66.10;;;;;;4887186;29;20198;-82
2021/06/24 01:01:44;;;;;;;5.28;4.47;;;22.30;66.10;;;;;;4902291;29;20193;-81
2021/06/24 01:04:11;;;;;;;5.15;4.50;;;22.30;66.10;;;;;;4886720;29;20182;-81
2021/06/24 01:06:39;;;;;;;5.10;4.43;;;22.30;66.10;;;;;;4870927;29;20658;-81
2021/06/24 01:09:06;;;;;;;5.50;4.70;;;22.30;66.00;;;;;;4902149;29;20218;-81
2021/06/24 01:11:33;;;;;;;4.97;4.20;;;22.40;66.10;;;;;;4902167;29;20183;-81
2021/06/24 01:13:59;;;;;;;4.53;4.13;;;22.30;66.00;;;;;;4901860;29;20254;-82
2021/06/24 01:16:25;;;;;;;4.65;4.20;;;22.30;66.00;;;;;;4919665;29;20245;-81
2021/06/24 01:18:50;;;;;;;4.88;4.38;;;22.30;66.00;;;;;;4918396;29;20213;-82
2021/06/24 01:21:20;;;;;;;5.00;4.50;;;22.30;66.00;;;;;;4918244;29;20171;-81
2021/06/24 01:23:47;;;;;;;5.43;4.60;;;22.30;66.00;;;;;;4902376;29;20193;-81
2021/06/24 01:26:15;;;;;;;5.22;4.72;;;22.30;66.00;;;;;;4886244;29;20191;-81
2021/06/24 01:28:42;;;;;;;5.25;4.35;;;22.30;66.00;;;;;;4886026;29;20226;-81
2021/06/24 01:31:08;;;;;;;5.38;4.70;;;22.30;66.00;;;;;;4901621;29;20190;-81
2021/06/24 01:33:33;;;;;;;5.75;4.90;;;22.30;66.00;;;;;;4918084;29;20158;-82
2021/06/24 01:36:01;;;;;;;5.18;4.68;;;22.30;66.00;;;;;;4919192;29;20186;-81
2021/06/24 01:38:26;;;;;;;5.68;4.82;;;22.30;66.10;;;;;;4919212;29;20698;-81
2021/06/24 01:40:52;;;;;;;5.30;4.80;;;22.30;66.00;;;;;;4917952;29;20198;-82
2021/06/24 01:43:18;;;;;;;4.90;4.40;;;22.30;66.00;;;;;;4917924;29;20577;-81
2021/06/24 01:45:48;;;;;;;5.30;4.50;;;22.30;66.00;;;;;;4918179;29;20170;-81
2021/06/24 01:48:13;;;;;;;4.95;4.30;;;22.40;66.10;;;;;;4917719;29;20186;-81
2021/06/24 01:50:39;;;;;;;5.18;4.45;;;22.40;66.10;;;;;;4917740;29;20210;-81
2021/06/24 01:53:09;;;;;;;5.05;4.55;;;22.40;66.10;;;;;;4901897;29;20218;-81
2021/06/24 01:55:40;;;;;;;4.70;4.20;;;22.30;66.00;;;;;;4901383;29;20186;-81
2021/06/24 01:58:09;;;;;;;5.28;4.78;;;22.30;66.00;;;;;;4886652;29;20191;-81
2021/06/24 02:00:39;;;;;;;5.40;4.47;;;22.30;66.00;;;;;;4901415;29;20183;-81
2021/06/24 02:03:07;;;;;;;5.13;4.53;;;22.30;66.00;;;;;;4901715;29;20195;-82
2021/06/24 02:05:35;;;;;;;5.63;4.55;;;22.30;66.00;;;;;;4885598;29;20187;-81
2021/06/24 02:08:04;;;;;;;4.90;4.40;;;22.40;66.10;;;;;;4885125;29;20211;-81
2021/06/24 02:10:32;;;;;;;5.35;4.60;;;22.30;66.10;;;;;;4870193;29;20214;-82
2021/06/24 02:13:00;;;;;;;4.90;4.40;;;22.30;66.00;;;;;;4885518;29;20195;-81
2021/06/24 02:15:27;;;;;;;4.90;4.40;;;22.40;66.10;;;;;;4900930;29;20218;-81
2021/06/24 02:17:53;;;;;;;5.35;4.80;;;22.30;66.00;;;;;;4885432;29;20583;-81
2021/06/24 02:20:20;;;;;;;5.55;4.82;;;22.30;66.00;;;;;;4918524;29;20161;-81
2021/06/24 02:22:46;;;;;;;4.93;4.40;;;22.30;66.10;;;;;;4917270;29;20282;-81
2021/06/24 02:25:13;;;;;;;5.78;4.50;;;22.30;66.10;;;;;;4918500;29;20226;-81
2021/06/24 02:27:39;;;;;;;5.40;4.55;;;22.30;66.00;;;;;;4916958;29;20218;-81
2021/06/24 02:30:06;;;;;;;5.07;4.57;;;22.20;66.00;;;;;;4918471;29;20537;-81
2021/06/24 02:32:31;;;;;;;5.65;4.60;;;22.30;66.10;;;;;;4917183;29;20661;-81
2021/06/24 02:34:59;;;;;;;5.25;4.53;;;22.30;66.10;;;;;;4917009;29;20163;-81
2021/06/24 02:37:25;;;;;;;4.75;4.20;;;22.30;66.10;;;;;;4917100;29;20166;-81
2021/06/24 02:39:51;;;;;;;4.55;4.15;;;22.30;66.00;;;;;;4918043;29;20178;-81
2021/06/24 02:42:17;;;;;;;4.60;4.13;;;22.30;66.00;;;;;;4918502;29;20230;-81
2021/06/24 02:44:43;;;;;;;4.60;4.13;;;22.30;66.00;;;;;;4917039;29;20634;-81
2021/06/24 02:47:10;;;;;;;5.40;4.40;;;22.30;66.00;;;;;;4916886;29;20238;-81
2021/06/24 02:49:35;;;;;;;5.15;4.57;;;22.30;66.00;;;;;;4917200;29;20191;-82
2021/06/24 02:52:01;;;;;;;5.57;4.55;;;22.30;66.10;;;;;;4917943;29;20657;-81
2021/06/24 02:54:27;;;;;;;5.28;4.70;;;22.30;66.10;;;;;;4916632;29;20223;-81
2021/06/24 02:56:52;;;;;;;5.57;4.65;;;22.30;66.10;;;;;;4917778;29;20183;-81
2021/06/24 02:59:20;;;;;;;5.13;4.50;;;22.30;66.10;;;;;;4916765;29;20540;-80
2021/06/24 03:01:51;;;;;;;5.20;4.70;;;22.30;66.10;;;;;;4884506;29;20233;-81
2021/06/24 03:04:21;;;;;;;5.00;4.50;;;22.30;66.10;;;;;;4900154;29;20186;-81
2021/06/24 03:06:47;;;;;;;4.80;4.18;;;22.30;66.10;;;;;;4916718;29;20175;-82
2021/06/24 03:09:13;;;;;;;5.07;4.50;;;22.30;66.20;;;;;;4916232;29;20658;-82
2021/06/24 03:11:38;;;;;;;5.57;4.72;;;22.30;66.10;;;;;;4900843;29;20167;-81
2021/06/24 03:14:04;;;;;;;5.63;4.90;;;22.20;66.10;;;;;;4916711;29;20163;-81
2021/06/24 03:16:30;;;;;;;4.90;4.40;;;22.30;66.20;;;;;;4916320;29;20242;-80
2021/06/24 03:18:57;;;;;;;5.22;4.50;;;22.30;66.20;;;;;;4916727;29;20178;-82
2021/06/24 03:21:22;;;;;;;4.80;4.30;;;22.20;66.20;;;;;;4899813;29;20580;-81
2021/06/24 03:23:48;;;;;;;5.80;4.65;;;22.30;66.20;;;;;;4916578;29;20170;-81
2021/06/24 03:26:15;;;;;;;5.05;4.55;;;22.30;66.20;;;;;;4916553;29;20171;-82
2021/06/24 03:28:44;;;;;;;4.88;4.38;;;22.30;66.20;;;;;;4916147;29;20234;-81
2021/06/24 03:31:10;;;;;;;5.15;4.53;;;22.30;66.20;;;;;;4899853;29;20193;-82
2021/06/24 03:33:39;;;;;;;5.10;4.60;;;22.30;66.20;;;;;;4916261;29;20631;-81
2021/06/24 03:36:07;;;;;;;5.53;4.70;;;22.30;66.20;;;;;;4884299;29;20183;-81
2021/06/24 03:38:33;;;;;;;5.65;5.00;;;22.30;66.20;;;;;;4900169;29;20183;-81
2021/06/24 03:41:01;;;;;;;5.60;4.60;;;22.20;66.10;;;;;;4916263;29;20210;-81
2021/06/24 03:43:28;;;;;;;5.43;4.72;;;22.30;66.20;;;;;;4884254;29;20218;-81
2021/06/24 03:45:56;;;;;;;5.07;4.47;;;22.30;66.20;;;;;;4900014;29;20210;-81
2021/06/24 03:48:22;;;;;;;5.03;4.45;;;22.30;66.20;;;;;;4899703;29;20237;-81
2021/06/24 03:50:48;;;;;;;5.22;4.50;;;22.30;66.20;;;;;;4916094;29;20623;-81
2021/06/24 03:53:14;;;;;;;5.10;4.45;;;22.30;66.20;;;;;;4916305;29;20178;-81
2021/06/24 03:55:43;;;;;;;5.38;4.53;;;22.30;66.20;;;;;;4916756;29;20170;-81
2021/06/24 03:58:09;;;;;;;5.00;4.50;;;22.30;66.20;;;;;;4900950;29;20182;-81
2021/06/24 04:00:36;;;;;;;5.13;4.63;;;22.30;66.20;;;;;;4916487;29;20729;-81
2021/06/24 04:03:02;;;;;;;5.88;5.00;;;22.30;66.20;;;;;;4916547;29;20183;-82
2021/06/24 04:05:31;;;;;;;4.85;4.30;;;22.20;66.20;;;;;;4916461;29;20189;-81
2021/06/24 04:07:59;;;;;;;5.07;4.40;;;22.20;66.20;;;;;;4916597;29;20155;-81
2021/06/24 04:10:25;;;;;;;5.15;4.60;;;22.30;66.20;;;;;;4917329;29;20162;-81
2021/06/24 04:12:51;;;;;;;4.93;4.40;;;22.20;66.20;;;;;;4900683;29;20230;-81
2021/06/24 04:15:17;;;;;;;5.22;4.38;;;22.30;66.30;;;;;;4916241;29;20620;-80
2021/06/24 04:17:43;;;;;;;4.90;4.30;;;22.30;66.50;;;;;;4917248;29;20160;-81
2021/06/24 04:20:09;;;;;;;4.70;4.13;;;22.20;66.90;;;;;;4916283;29;20257;-80
2021/06/24 04:22:35;;;;;;;4.90;4.07;;;22.20;67.10;;;;;;4917264;29;20201;-81
2021/06/24 04:25:03;;;;;;;4.28;3.78;;;22.20;67.50;;;;;;4916812;29;20635;-81
2021/06/24 04:27:28;;;;;;;4.93;4.30;;;22.10;67.70;;;;;;4900264;29;20214;-80
2021/06/24 04:29:54;;;;;;;5.15;4.10;;;22.20;68.00;;;;;;4918422;29;20191;-80
2021/06/24 04:32:19;;;;;;;5.60;4.00;;;22.00;68.30;;;;;;4905184;29;20178;-81
2021/06/24 04:34:45;;;;;;;5.15;4.03;;;21.90;68.50;;;;;;4920401;29;20159;-80
2021/06/24 04:37:11;;;;;;;5.47;4.43;;;22.00;68.90;;;;;;4921559;29;20250;-81
2021/06/24 04:39:36;;;;;;;5.43;4.07;;;22.00;69.10;;;;;;4920529;29;20167;-81
2021/06/24 04:42:03;;;;;;;4.45;3.92;;;21.90;69.30;;;;;;4920950;29;20267;-80
2021/06/24 04:44:29;;;;;;;4.00;3.60;;;21.80;69.50;;;;;;4904612;29;20714;-81
2021/06/24 04:46:56;;;;;;;4.47;3.90;;;21.90;69.90;;;;;;4920309;29;20198;-81
2021/06/24 04:49:24;;;;;;;4.50;3.80;;;21.80;69.90;;;;;;4920154;29;20219;-81
2021/06/24 04:51:50;;;;;;;4.72;4.03;;;21.70;70.30;;;;;;4936117;29;20167;-81
2021/06/24 04:54:16;;;;;;;4.93;3.97;;;21.80;70.40;;;;;;4920224;29;20544;-82
2021/06/24 04:56:43;;;;;;;4.45;3.97;;;21.70;70.70;;;;;;4919939;29;20185;-81
2021/06/24 04:59:10;;;;;;;4.82;4.05;;;21.70;70.90;;;;;;4872595;29;20193;-81
2021/06/24 05:01:37;;;;;;;4.55;3.90;;;21.70;70.90;;;;;;4903650;29;20191;-81
2021/06/24 05:04:04;;;;;;;4.05;3.65;;;21.60;71.20;;;;;;4888099;29;20186;-81
2021/06/24 05:06:30;;;;;;;4.15;3.65;;;21.60;71.40;;;;;;4887544;29;20191;-81
2021/06/24 05:08:56;;;;;;;4.60;3.90;;;21.60;71.40;;;;;;4919431;29;20212;-81
2021/06/24 05:11:21;;;;;;;4.78;3.90;;;21.60;71.50;;;;;;4921187;29;20166;-81
2021/06/24 05:13:47;;;;;;;5.05;3.72;;;21.60;71.70;;;;;;4919718;29;20171;-80
2021/06/24 05:16:14;;;;;;;5.03;4.00;;;21.60;71.80;;;;;;4919943;29;20155;-81
2021/06/24 05:18:43;;;;;;;5.00;4.05;;;21.60;71.80;;;;;;4903219;29;20229;-81
2021/06/24 05:21:10;;;;;;;4.85;4.30;;;21.60;71.90;;;;;;4903103;29;20194;-81
2021/06/24 05:23:42;;;;;;;4.68;3.85;;;21.60;72.00;;;;;;4887382;29;20542;-81
2021/06/24 05:26:10;;;;;;;5.07;4.30;;;21.50;72.00;;;;;;4888813;29;20701;-81
2021/06/24 05:28:37;;;;;;;4.72;3.90;;;21.50;72.20;;;;;;4918713;29;20226;-81
2021/06/24 05:31:02;;;;;;;4.25;3.80;;;21.50;72.30;;;;;;4902259;29;20213;-81
2021/06/24 05:33:29;;;;;;;4.60;3.97;;;21.50;72.30;;;;;;4918097;29;20643;-81
2021/06/24 05:35:55;;;;;;;4.70;4.05;;;21.50;72.20;;;;;;4919125;29;20174;-81
2021/06/24 05:38:22;;;;;;;4.57;4.10;;;21.60;72.20;;;;;;4918134;29;20166;-79
2021/06/24 05:40:48;;;;;;;4.38;3.90;;;21.60;72.10;;;;;;4916979;29;20631;-80
2021/06/24 05:43:14;;;;;;;4.40;3.75;;;21.60;72.30;;;;;;4917524;29;20167;-80
2021/06/24 05:45:42;;;;;;;4.60;3.70;;;21.50;72.30;;;;;;4917671;29;20266;-80
2021/06/24 05:48:08;;;;;;;4.32;3.67;;;21.60;72.40;;;;;;4901260;29;20247;-80
2021/06/24 05:50:34;;;;;;;4.60;3.80;;;21.50;72.40;;;;;;4918880;29;20155;-80
2021/06/24 05:52:59;;;;;;;4.55;3.88;;;21.50;72.60;;;;;;4917860;29;20180;-80
2021/06/24 05:58:05;;;;;;;4.95;4.00;;;21.50;72.60;;;;;;4917632;29;20685;-81
2021/06/24 06:00:31;;;;;;;4.40;3.65;;;21.40;72.50;;;;;;4917737;29;20183;-81
2021/06/24 06:02:57;;;;;;;4.55;3.80;;;21.50;72.70;;;;;;4917337;29;20642;-81
2021/06/24 06:05:22;;;;;;;4.65;4.10;;;21.50;72.60;;;;;;4918561;29;20170;-80
2021/06/24 06:07:48;;;;;;;5.05;4.00;;;21.50;72.60;;;;;;4917242;29;20159;-80
2021/06/24 06:10:14;;;;;;;4.93;3.90;;;21.50;72.50;;;;;;4918658;29;20805;-81
2021/06/24 06:12:39;;;;;;;4.50;3.75;;;21.40;72.50;;;;;;4937231;29;20178;-80
2021/06/24 06:15:08;;;;;;;4.18;3.70;;;21.50;72.60;;;;;;4936430;29;20200;-80
2021/06/24 06:17:34;;;;;;;4.13;3.60;;;21.50;72.70;;;;;;4937300;29;20150;-80
2021/06/24 06:19:59;;;;;;;4.13;3.63;;;21.50;72.80;;;;;;4936112;29;20158;-80
2021/06/24 06:22:25;;;;;;;4.50;3.80;;;21.50;72.80;;;;;;4936060;29;20177;-81
2021/06/24 06:24:51;;;;;;;4.72;4.10;;;21.40;72.80;;;;;;4920167;29;20209;-81
2021/06/24 06:27:17;;;;;;;5.18;3.90;;;21.40;73.00;;;;;;4936721;29;20222;-81
2021/06/24 06:29:43;;;;;;;4.35;3.60;;;21.40;73.20;;;;;;4936004;29;20204;-81
2021/06/24 06:32:08;;;;;;;5.03;4.05;;;21.40;73.30;;;;;;4937046;29;20155;-80
2021/06/24 06:34:34;;;;;;;4.35;3.95;;;21.40;73.40;;;;;;4937159;29;20189;-81
2021/06/24 06:37:01;;;;;;;4.38;3.50;;;21.40;73.40;;;;;;4936440;29;20182;-80
2021/06/24 06:39:26;;;;;;;4.28;3.78;;;21.40;73.50;;;;;;4936943;29;20162;-80
2021/06/24 06:41:52;;;;;;;4.85;4.05;;;21.50;73.50;;;;;;4935581;29;20502;-81
2021/06/24 06:44:18;;;;;;;4.43;3.75;;;21.40;73.40;;;;;;4936911;29;20641;-80
2021/06/24 06:46:44;;;;;;;4.40;3.95;;;21.40;73.30;;;;;;4935786;29;20162;-79
2021/06/24 06:49:10;;;;;;;5.13;3.42;;;21.40;73.30;;;;;;4920165;29;20665;-84
2021/06/24 06:51:39;;;;;;;4.00;3.58;;;21.40;73.20;;;;;;4939834;29;20165;-84
2021/06/24 06:54:08;;;;;;;5.13;3.80;;;21.50;73.10;;;;;;4923080;29;20170;-85
2021/06/24 06:56:34;;;;;;;4.20;3.72;;;21.40;72.90;;;;;;4925345;29;20166;-83
2021/06/24 06:59:01;;;;;;;4.75;3.90;;;21.40;72.90;;;;;;4920887;29;20162;-82
2021/06/24 07:01:27;;;;;;;5.30;3.58;;;21.50;72.80;;;;;;4934933;29;20155;-78
2021/06/24 07:03:52;;;;;;;4.70;3.97;;;21.50;72.70;;;;;;4935752;29;20184;-80
2021/06/24 07:06:18;;;;;;;4.63;4.00;;;21.50;72.40;;;;;;4935791;29;20169;-79
2021/06/24 07:08:45;;;;;;;5.00;3.72;;;21.50;72.40;;;;;;4937541;29;20194;-79
2021/06/24 07:11:11;;;;;;;4.03;3.60;;;21.50;72.20;;;;;;4938278;29;20216;-80
2021/06/24 07:13:37;;;;;;;4.15;3.70;;;21.50;72.30;;;;;;4939010;29;20166;-80
2021/06/24 07:16:03;;;;;;;4.20;3.38;;;21.50;72.40;;;;;;4939341;29;20164;-79
2021/06/24 07:18:28;;;;;;;4.47;3.70;;;21.50;72.30;;;;;;4939131;29;20261;-80
2021/06/24 07:20:54;;;;;;;4.50;3.78;;;21.40;72.10;;;;;;4938325;29;20162;-79
2021/06/24 07:23:20;;;;;;;4.97;3.83;;;21.50;72.00;;;;;;4939784;29;20246;-80
2021/06/24 07:25:46;;;;;;;4.07;3.42;;;21.50;72.00;;;;;;4938966;29;20197;-80
2021/06/24 07:28:12;;;;;;;5.30;3.90;;;21.50;72.00;;;;;;4937482;29;20233;-80
2021/06/24 07:30:39;;;;;;;4.32;3.42;;;21.50;72.10;;;;;;4937807;29;20511;-79
2021/06/24 07:33:05;;;;;;;4.03;3.55;;;21.50;72.00;;;;;;4922056;29;20533;-80
2021/06/24 07:35:31;;;;;;;4.70;3.50;;;21.50;72.00;;;;;;4921718;29;20615;-79
2021/06/24 07:37:57;;;;;;;4.63;3.80;;;21.40;71.80;;;;;;4939220;29;20499;-79
2021/06/24 07:40:23;;;;;;;4.55;3.70;;;21.50;71.80;;;;;;4937430;29;20188;-79
2021/06/24 07:42:48;;;;;;;4.00;3.50;;;21.50;71.80;;;;;;4937491;29;20158;-80
2021/06/24 07:45:14;;;;;;;3.83;3.45;;;21.50;72.50;;;;;;4935038;29;20189;-80
2021/06/24 07:47:40;;;;;;;4.68;3.40;;;21.50;71.70;;;;;;4934895;29;20558;-78
2021/06/24 07:50:06;;;;;;;3.97;3.53;;;21.50;71.50;;;;;;4935497;29;20225;-79
2021/06/24 07:52:32;;;;;;;4.05;3.63;;;21.50;71.60;;;;;;4934639;29;20170;-79
2021/06/24 07:54:58;;;;;;;4.75;3.45;;;21.50;71.50;;;;;;4936255;29;20237;-79
2021/06/24 07:57:23;;;;;;;4.25;3.85;;;21.50;72.30;;;;;;4936054;29;20158;-79
2021/06/24 07:59:49;;;;;;;3.88;3.47;;;21.50;71.50;;;;;;4937075;29;20174;-80
2021/06/24 08:02:16;;;;;;;4.60;4.10;;;21.50;71.50;;;;;;4919561;29;20218;-81
2021/06/24 08:04:42;;;;;;;4.32;3.65;;;21.60;71.40;;;;;;4938093;29;20229;-82
2021/06/24 08:07:12;;;;;;;3.90;3.40;;;21.50;71.20;;;;;;4923327;29;20174;-81
2021/06/24 08:09:38;;;;;;;4.25;3.83;;;21.50;70.90;;;;;;4891347;29;20218;-83
2021/06/24 08:12:04;;;;;;;4.50;3.80;;;21.60;71.00;;;;;;4923871;29;20254;-81
2021/06/24 08:14:30;;;;;;;4.07;3.65;;;21.60;71.90;;;;;;4938398;29;20181;-81
2021/06/24 08:16:56;;;;;;;4.63;4.20;;;21.60;70.80;;;;;;4922466;29;20636;-81
2021/06/24 08:19:21;;;;;;;4.25;3.65;;;21.60;71.00;;;;;;4938757;29;20173;-81
2021/06/24 08:21:47;;;;;;;4.40;4.00;;;21.60;71.70;;;;;;4939459;29;20166;-82
2021/06/24 08:24:13;;;;;;;4.07;3.45;;;21.50;70.70;;;;;;4938391;29;20174;-82
2021/06/24 08:26:38;;;;;;;4.05;3.65;;;21.60;70.70;;;;;;4922607;29;20170;-81
2021/06/24 08:29:04;;;;;;;5.70;3.80;;;21.60;70.70;;;;;;4938149;29;20229;-82
2021/06/24 08:31:30;;;;;;;4.05;3.60;;;21.60;70.60;;;;;;4938581;29;20158;-82
2021/06/24 08:33:56;;;;;;;4.10;3.70;;;21.60;70.50;;;;;;4922910;29;20229;-81
2021/06/24 08:36:22;;;;;;;4.13;3.67;;;21.70;70.50;;;;;;4938600;29;20154;-82
2021/06/24 08:38:49;;;;;;;3.95;3.55;;;21.60;70.40;;;;;;4939851;29;20159;-81
2021/06/24 08:41:19;;;;;;;4.68;3.50;;;21.70;70.40;;;;;;4906523;29;20281;-81
2021/06/24 08:43:48;;;;;;;4.18;3.40;;;21.70;70.50;;;;;;4892172;29;20597;-83
2021/06/24 08:46:16;;;;;;;4.47;3.55;;;21.70;70.30;;;;;;4906945;29;20230;-81
2021/06/24 08:48:41;;;;;;;5.47;3.70;;;21.70;70.20;;;;;;4874809;29;20209;-82
2021/06/24 08:51:07;;;;;;;5.35;3.45;;;21.70;70.00;;;;;;4939402;29;20209;-82
2021/06/24 08:53:33;;;;;;;4.68;3.80;;;21.80;69.90;;;;;;4938936;29;20226;-82
2021/06/24 08:55:59;;;;;;;5.35;3.50;;;21.80;69.80;;;;;;4938287;29;20182;-82
2021/06/24 08:58:25;;;;;;;4.22;3.30;;;21.80;69.60;;;;;;4940747;29;20644;-81
2021/06/24 09:00:59;;;;;;;5.43;3.70;;;21.80;69.50;;;;;;4940955;29;20297;-81
2021/06/24 09:03:28;;;;;;;6.32;4.10;;;21.80;69.40;;;;;;4939549;29;20165;-81
2021/06/24 09:05:59;;;;;;;7.32;3.33;;;21.80;69.30;;;;;;4943649;29;20182;-81
2021/06/24 09:08:46;;;;;;;5.80;3.55;;;21.90;69.30;;;;;;4944296;29;20356;-82
2021/06/24 09:11:19;;;;;;;5.70;3.72;;;21.90;69.20;;;;;;4922378;29;20193;-82
2021/06/24 09:14:03;;;;;;;4.20;3.38;;;21.90;69.00;;;;;;4938224;29;20155;-80
2021/06/24 09:16:32;;;;;;;5.90;3.83;;;22.00;68.60;;;;;;4930020;29;20210;-81
2021/06/24 09:19:23;;;;;;;6.63;3.80;;;22.10;68.30;;;;;;4927906;29;20240;-81
2021/06/24 09:21:59;;;;;;;9.38;4.35;;;22.10;68.30;;;;;;4938997;29;20158;-81
2021/06/24 09:24:36;;;;;;;10.65;4.53;;;22.20;68.10;;;;;;4941343;29;20168;-81
2021/06/24 09:27:21;;;;;;;8.93;4.35;;;22.30;68.10;;;;;;4939962;29;20169;-80
2021/06/24 09:29:49;;;;;;;8.73;3.92;;;22.20;68.10;;;;;;4937421;29;20189;-80
2021/06/24 09:32:29;;;;;;;6.85;4.28;;;22.30;68.80;;;;;;4942337;29;20192;-80
2021/06/24 09:34:55;;;;;;;13.70;4.00;;;22.30;67.60;;;;;;4939934;29;20172;-82
2021/06/24 09:37:20;;;;;;;6.65;4.03;;;22.30;67.40;;;;;;4937645;29;20575;-84
2021/06/24 09:39:48;;;;;;;12.15;4.60;;;22.30;67.50;;;;;;4937783;29;20598;-80
2021/06/24 09:42:14;;;;;;;8.88;3.90;;;22.30;67.30;;;;;;4937685;29;20288;-81
2021/06/24 09:44:42;;;;;;;8.30;4.40;;;22.40;67.00;;;;;;4936102;29;20581;-81
2021/06/24 09:47:29;;;;;;;13.55;4.95;;;22.40;67.40;;;;;;4936410;29;20169;-80
2021/06/24 09:49:56;;;;;;;7.15;4.00;;;22.40;66.70;;;;;;4919606;29;20228;-81
2021/06/24 09:52:22;;;;;;;9.80;4.47;;;22.50;66.70;;;;;;4936157;29;20252;-81
2021/06/24 09:54:50;;;;;;;9.65;4.45;;;22.50;67.10;;;;;;4939668;29;20166;-81
2021/06/24 09:57:27;;;;;;;6.60;3.88;;;22.40;67.00;;;;;;4937018;29;20147;-83
2021/06/24 09:59:54;;;;;;;7.88;4.40;;;22.50;66.70;;;;;;4888866;29;20193;-81
2021/06/24 10:02:22;;;;;;;10.05;4.35;;;22.50;66.70;;;;;;4904765;29;20193;-83
2021/06/24 10:04:49;;;;;;;8.70;3.90;;;22.50;66.70;;;;;;4904276;29;20196;-82
2021/06/24 10:07:18;;;;;;;5.95;4.45;;;22.40;67.00;;;;;;4904242;29;20272;-82
2021/06/24 10:09:50;;;;;;;6.97;3.85;;;22.40;67.00;;;;;;4888170;29;20213;-81
2021/06/24 10:12:18;;;;;;;8.23;4.00;;;22.40;67.10;;;;;;4886363;29;20286;-80
2021/06/24 10:14:45;;;;;;;5.40;3.85;;;22.30;67.00;;;;;;4874362;29;20198;-81
2021/06/24 10:17:10;;;;;;;9.35;4.25;;;22.30;66.90;;;;;;4884761;29;20206;-80
2021/06/24 10:19:39;;;;;;;7.68;4.18;;;22.40;67.00;;;;;;4916742;29;20242;-81
2021/06/24 10:22:17;;;;;;;9.50;4.45;;;22.30;67.10;;;;;;4917643;29;20187;-81
2021/06/24 10:25:03;;;;;;;6.68;3.70;;;22.30;67.20;;;;;;4917109;29;20166;-81
2021/06/24 10:27:34;;;;;;;8.83;4.20;;;22.30;67.10;;;;;;4858499;29;1216799;-80
2021/06/24 10:30:21;;;;;;;4.82;3.90;;;22.40;66.90;;;;;;4917178;29;20190;-81
2021/06/24 10:33:00;;;;;;;7.90;4.20;;;22.50;66.40;;;;;;4917252;29;20269;-80
2021/06/24 10:35:32;;;;;;;7.07;4.47;;;22.60;66.00;;;;;;4916599;29;20753;-81
2021/06/24 10:37:59;;;;;;;8.38;4.40;;;22.60;65.90;;;;;;4900656;29;20599;-81
2021/06/24 10:40:33;;;;;;;7.57;4.50;;;22.60;66.00;;;;;;4885484;29;20631;-80
2021/06/24 10:43:01;;;;;;;8.52;4.45;;;22.70;65.60;;;;;;4923844;29;20216;-81
2021/06/24 10:45:27;;;;;;;8.63;4.35;;;22.70;66.40;;;;;;4937113;29;20162;-79
2021/06/24 10:47:55;;;;;;;12.10;4.63;;;22.60;65.60;;;;;;4935790;29;20229;-80
2021/06/24 10:50:37;;;;;;;9.77;4.40;;;22.70;65.70;;;;;;4937574;29;20177;-79
2021/06/24 10:53:45;;;;;;;11.43;4.70;;;22.70;65.70;;;;;;4937077;29;20154;-81
2021/06/24 10:56:34;;;;;;;7.38;4.18;;;22.80;65.80;;;;;;4937118;29;20178;-80
2021/06/24 10:59:03;;;;;;;7.40;4.53;;;22.80;65.90;;;;;;4937678;29;20209;-80
2021/06/24 11:01:45;;;;;;;11.27;4.63;;;22.80;65.80;;;;;;4936907;29;20534;-81
2021/06/24 11:04:27;;;;;;;10.40;4.30;;;22.80;65.70;;;;;;4936705;29;20285;-80
2021/06/24 11:06:53;;;;;;;8.90;4.50;;;22.80;65.50;;;;;;4935933;29;20213;-81
2021/06/24 11:09:20;;;;;;;10.70;4.78;;;22.90;65.40;;;;;;4935676;29;20190;-80
2021/06/24 11:11:46;;;;;;;7.55;4.45;;;22.80;65.10;;;;;;4937335;29;20260;-80
2021/06/24 11:14:17;;;;;;;8.07;4.38;;;22.90;65.40;;;;;;4936634;29;20649;-81
2021/06/24 11:16:44;;;;;;;7.75;4.80;;;22.90;65.30;;;;;;4888214;29;20209;-80
2021/06/24 11:19:11;;;;;;;8.50;4.22;;;22.90;65.50;;;;;;4935864;29;20162;-80
2021/06/24 11:21:50;;;;;;;5.85;4.30;;;22.90;65.20;;;;;;4935494;29;20170;-81
2021/06/24 11:24:18;;;;;;;8.48;4.30;;;22.90;65.20;;;;;;4934753;29;20625;-80
2021/06/24 11:26:49;;;;;;;10.02;5.45;;;22.90;65.10;;;;;;4937134;29;20185;-80
2021/06/24 11:29:28;;;;;;;14.57;4.93;;;22.90;65.30;;;;;;4936916;29;20234;-81
2021/06/24 11:32:04;;;;;;;11.27;4.78;;;22.90;65.40;;;;;;4936920;29;20305;-80
2021/06/24 11:34:56;;;;;;;15.52;4.70;;;22.90;65.60;;;;;;4935278;29;20161;-80
2021/06/24 11:37:25;;;;;;;11.55;4.90;;;22.90;65.50;;;;;;4936295;29;20523;-81
2021/06/24 11:39:54;;;;;;;9.57;4.65;;;23.00;65.50;;;;;;4937839;29;20253;-82
2021/06/24 11:45:05;;;;;;;12.07;4.80;;;22.90;65.50;;;;;;4936490;29;20685;-81
2021/06/24 11:47:32;;;;;;;9.05;4.70;;;22.90;65.40;;;;;;4935634;29;20525;-80
2021/06/24 12:04:12;;;;;;;8.32;4.75;;;23.10;64.90;;;;;;4923051;29;20170;-81
2021/06/24 12:06:59;;;;;;;10.07;4.78;;;23.10;64.70;;;;;;4951259;29;20262;-81
2021/06/24 12:09:26;;;;;;;9.05;4.20;;;23.10;64.70;;;;;;4951456;29;20197;-80
2021/06/24 12:11:55;;;;;;;9.18;4.78;;;23.10;64.70;;;;;;4952047;29;20199;-81
2021/06/24 12:14:23;;;;;;;8.07;4.68;;;23.10;64.50;;;;;;4935284;29;20537;-81
2021/06/24 12:17:02;;;;;;;9.43;4.68;;;23.10;64.70;;;;;;4935225;29;20289;-81
2021/06/24 12:19:45;;;;;;;9.52;4.72;;;23.20;64.60;;;;;;4935407;29;20161;-81
2021/06/24 12:22:13;;;;;;;8.32;4.88;;;23.10;64.70;;;;;;4935340;29;20170;-81
2021/06/24 12:24:39;;;;;;;6.38;4.57;;;23.10;64.80;;;;;;4936143;29;20249;-82
2021/06/24 12:27:24;;;;;;;10.95;4.90;;;23.10;64.90;;;;;;4949064;29;20190;-82
2021/06/24 12:29:50;;;;;;;9.68;4.90;;;23.10;64.70;;;;;;4936327;29;20237;-82
2021/06/24 12:32:17;;;;;;;9.32;4.90;;;23.20;64.70;;;;;;4935138;29;20202;-81
2021/06/24 12:34:43;;;;;;;7.53;4.40;;;23.20;64.60;;;;;;4934586;29;20166;-82
2021/06/24 12:37:08;;;;;;;9.25;4.70;;;23.10;64.30;;;;;;4936176;29;20169;-80
2021/06/24 12:39:34;;;;;;;6.53;4.57;;;23.20;64.60;;;;;;4934897;29;20170;-82
2021/06/24 12:42:03;;;;;;;9.25;4.78;;;23.20;64.50;;;;;;4950615;29;20228;-81
2021/06/24 12:44:29;;;;;;;7.53;4.47;;;23.20;64.70;;;;;;4935993;29;20592;-82
2021/06/24 12:46:54;;;;;;;8.27;4.63;;;23.10;64.50;;;;;;4934667;29;20178;-82
2021/06/24 12:49:20;;;;;;;6.20;4.80;;;23.10;64.90;;;;;;4936118;29;20198;-81
2021/06/24 12:51:46;;;;;;;8.20;4.60;;;23.10;65.50;;;;;;4938157;29;20610;-81
2021/06/24 12:54:16;;;;;;;8.88;4.80;;;23.20;65.00;;;;;;4939349;29;20182;-82
2021/06/24 12:56:45;;;;;;;7.00;4.32;;;23.20;65.10;;;;;;4921580;29;20186;-81
2021/06/24 12:59:17;;;;;;;6.72;4.75;;;23.20;64.80;;;;;;4937684;29;20158;-82
2021/06/24 13:01:49;;;;;;;7.05;4.50;;;23.20;64.70;;;;;;4937712;29;20162;-80
2021/06/24 13:04:20;;;;;;;10.07;4.78;;;23.20;64.70;;;;;;4905592;29;20201;-82
2021/06/24 13:06:47;;;;;;;6.50;4.70;;;23.30;64.70;;;;;;4921728;29;20177;-81
2021/06/24 13:09:15;;;;;;;8.70;4.45;;;23.30;64.90;;;;;;4936968;29;20196;-83